Google Maps JavaScript API Example
Pilot Flight Report # 92899 Submitted by : AST775 on 2019-04-14
Date: 2019-04-14Aircraft: Boeing 737 MAX7
Flight No.: Not AvailableDistance (Nm): 594.02
Departure: SAEZ - Ezeiza International Ministro PistarinDestination: SGES - Guarani Intl
 TimeFuelWeightSpeeds  
Out (Taxi)1019Z23333 lbs112433 lbs Flight RulesVFR
Off (Takeoff)1019Z 112315 lbs174 ktsFlight Level29500
On (Landing)1200Z 103634 lbs109 ktsVSTD-267 ft/min
In (Ramp)1201Z14524 lbs103627 lbs ZFW89101 lbs
Flight1.70  -  1:418682 lbs  Pax0
Block1.70  -  1:428809 lbs  Cargo0
Departure Weather141106Z 11804KT 45SM SKC 18/10 A2985
Destination WeatherSWNH 141201Z 00000KT 45SM FEW060 BKN287 26/22 A2988
Flight CommentsLeg 12 - SAEZ - SGES